Central Wisconsin Airport
KCWA : now visible

Airfield :











YOU CAN JOIN US ON...

 
LOGIN :

Register | Disclaimer

   EN    FR    IT 

 









Legend :    VFR   Marginal VFR   IFR   Intensive IFR   Very Intensive IFR
Visi :
Ceiling :
>= 8 km
>= 3000ft
5 to 8 km
1000 to 3000 ft
1500m to 5 km
500 to 1000 ft
800 to 1500m
200 to 500 ft
< 800m
< 200 ft
Symbols :   Thunderstorms  Fog  Heavy snow  Heavy precipitations  Wind > 20 kt






- Airport Elevation : 1277 ft


KCWA - Central Wisconsin

CURRENT METAR :
  • 170335Z AUTO 21008KT 10SM CLR 25/21 A2978 RMK AO2

EXPIRED METARs :
  • 170315Z AUTO 20009KT 10SM SCT060 25/21 A2978 RMK AO2 LTG DSNT W
  • 170247Z 21009KT 10SM OVC060 25/22 A2977
  • 170147Z 20009KT 10SM BKN055 26/22 A2975
  • 170047Z 20010KT 10SM OVC040 27/22 A2973
  • 162347Z 19011G17KT 10SM BKN040 28/22 A2972
  • 162247Z 18008KT 10SM BKN040 28/22 A2972

TAF KCWA
Valid from the 17 at 00:00 until the 18 at 00:00 UTC


162335Z 1700/1724 19010KT P6SM SCT040
FM170300 20008KT P6SM VCSH SCT030 BKN060 WS020/24030KT
TEMPO 1706/1708 4SM -TSRA BKN030CB
FM170800 19003KT P6SM VCSH BKN012
FM171400 18006KT P6SM VCSH SCT020 BKN050
PROB30 1721/1724 P6SM -TSRA BKN025CB
KZMP FIR / North America



MET'MAP, your aeronautical weather chart ! - Copyright ORBIFLY December 2007 - Disclaimer

ORBIFLY MET'MAP TEAM :

Programming & Development : Alexandra Zaïnal
Original concept : Baudouin d'Aumeries
Technical & hardware support : Manuel Goepfert
Assistance : Marc-Olivier Méhu




SOURCES & CREDITS :

   NOAA       Earth
Advisory